Lilac, Texas
Current Conditions -  °F | °C
As of 5:58 PM on Tuesday 25 Nov 2014 (Local Time) from KGRK Reporting Station
Clear Clear  
Wind Chill: 55°   Ceiling: Unl
Heat Index: 55°   Visibility: 8mi
Dew Point: 29°   Wind: 5mph
Humidity: 37%   Direction: 290°WNW
Pressure: 30.19"   Gusts: NA
Location:  30.5951°N, 97.1399°W
Report Text: KGRK 252358Z AUTO 29004KT 8SM CLR 13/M02 A3019 RMK AO2 SLP226 T01251019 10174 20121 55006
Loading
Personal Weather Stations






























Interactive Weather Map New forecast layout! Learn more

10-Day Weather Forecast

Advertisements
Track Severe Weather on mobile